createdAt,value
2023-06-17T00:00:34.010Z,15.63
2023-06-17T00:01:36.190Z,15.58
2023-06-17T00:02:38.360Z,15.52
2023-06-17T00:03:40.657Z,15.52
2023-06-17T00:04:42.912Z,15.47
2023-06-17T00:05:45.084Z,15.55
2023-06-17T00:06:47.254Z,15.50
2023-06-17T00:07:49.429Z,15.47
2023-06-17T00:08:52.934Z,15.47
2023-06-17T00:09:55.135Z,15.50
2023-06-17T00:10:57.330Z,15.48
2023-06-17T00:11:59.528Z,15.41
2023-06-17T00:13:01.694Z,15.40
2023-06-17T00:14:03.991Z,15.45
2023-06-17T00:15:07.286Z,15.46
2023-06-17T00:16:10.235Z,15.39
2023-06-17T00:17:13.701Z,15.38
2023-06-17T00:18:20.553Z,15.39
2023-06-17T00:19:23.832Z,15.31
2023-06-17T00:20:26.024Z,15.35
2023-06-17T00:21:28.213Z,15.30
2023-06-17T00:22:30.982Z,15.35
2023-06-17T00:23:33.166Z,15.35
2023-06-17T00:24:36.750Z,15.34
2023-06-17T00:25:39.197Z,15.32
2023-06-17T00:26:41.873Z,15.30
2023-06-17T00:27:44.789Z,15.31
2023-06-17T00:28:46.974Z,15.26
2023-06-17T00:29:49.242Z,15.28
2023-06-17T00:30:51.633Z,15.23
2023-06-17T00:31:53.869Z,15.22
2023-06-17T00:32:56.136Z,15.22
2023-06-17T00:33:58.578Z,15.18
2023-06-17T00:35:00.846Z,15.22
2023-06-17T00:36:04.261Z,15.22
2023-06-17T00:37:06.677Z,15.13
2023-06-17T00:38:08.912Z,15.04
2023-06-17T00:39:11.409Z,15.03
2023-06-17T00:40:14.409Z,15.09
2023-06-17T00:41:17.027Z,15.10
2023-06-17T00:42:19.398Z,15.08
2023-06-17T00:43:21.857Z,15.06
2023-06-17T00:44:24.201Z,15.09
2023-06-17T00:45:26.388Z,15.07
2023-06-17T00:46:39.558Z,15.11
2023-06-17T00:47:42.617Z,15.14
2023-06-17T00:48:44.839Z,15.07
2023-06-17T00:49:48.184Z,15.09
2023-06-17T00:50:51.144Z,15.07
2023-06-17T00:52:13.232Z,15.06
2023-06-17T00:53:16.708Z,15.01
2023-06-17T00:54:19.051Z,15.01
2023-06-17T00:55:22.405Z,15.07
2023-06-17T00:56:26.359Z,15.04
2023-06-17T00:57:30.146Z,15.01
2023-06-17T00:58:33.170Z,15.00
2023-06-17T00:59:38.485Z,15.06
2023-06-17T01:00:40.879Z,15.00
2023-06-17T01:01:44.857Z,14.99
2023-06-17T01:02:47.614Z,15.01
2023-06-17T01:03:51.162Z,15.07
2023-06-17T01:04:54.992Z,15.12
2023-06-17T01:06:00.534Z,15.14
2023-06-17T01:07:31.324Z,15.14
2023-06-17T01:08:41.899Z,15.31
2023-06-17T01:09:51.060Z,15.37
2023-06-17T01:11:06.068Z,15.44
2023-06-17T01:12:09.801Z,15.36
2023-06-17T01:13:16.920Z,15.45
2023-06-17T01:14:22.284Z,15.48
2023-06-17T01:15:25.054Z,15.48
2023-06-17T01:16:28.259Z,15.49
2023-06-17T01:17:31.255Z,15.51
2023-06-17T01:18:34.237Z,15.45
2023-06-17T01:19:39.206Z,15.47
2023-06-17T01:20:41.748Z,15.48
2023-06-17T01:21:44.501Z,15.52
2023-06-17T01:22:49.749Z,15.59
2023-06-17T01:23:54.456Z,15.62
2023-06-17T01:24:57.449Z,15.58
2023-06-17T01:26:02.311Z,15.64
2023-06-17T01:27:05.129Z,15.62
2023-06-17T01:28:17.822Z,15.79
2023-06-17T01:29:20.899Z,15.67
2023-06-17T01:30:23.331Z,15.72
2023-06-17T01:31:28.016Z,15.66
2023-06-17T01:32:30.311Z,15.66
2023-06-17T01:33:33.689Z,15.74
2023-06-17T01:35:00.658Z,15.82
2023-06-17T01:36:12.114Z,15.86
2023-06-17T01:37:20.005Z,15.78
2023-06-17T01:38:29.384Z,15.80
2023-06-17T01:39:33.724Z,15.79
2023-06-17T01:40:36.607Z,15.77
2023-06-17T01:41:41.054Z,15.85
2023-06-17T01:42:47.823Z,15.93
2023-06-17T01:43:50.977Z,15.82
2023-06-17T01:44:54.416Z,15.91
2023-06-17T01:45:57.396Z,15.84
2023-06-17T01:46:59.905Z,15.80
2023-06-17T01:48:02.686Z,15.81
2023-06-17T01:49:05.061Z,15.86
2023-06-17T01:50:07.946Z,15.89
2023-06-17T01:51:10.483Z,15.85
2023-06-17T01:52:12.943Z,15.85
2023-06-17T01:53:15.176Z,15.77
2023-06-17T01:54:17.432Z,15.86
2023-06-17T01:55:20.101Z,15.88
2023-06-17T01:56:22.773Z,15.84
2023-06-17T01:57:26.216Z,15.84
2023-06-17T01:58:28.863Z,15.93
2023-06-17T01:59:31.634Z,15.94
2023-06-17T02:00:33.931Z,15.99
2023-06-17T02:01:36.228Z,15.96
2023-06-17T02:02:38.498Z,15.96
2023-06-17T02:03:43.352Z,15.92
2023-06-17T02:04:47.558Z,15.95
2023-06-17T02:05:50.107Z,15.91
2023-06-17T02:06:52.876Z,15.97
2023-06-17T02:08:01.053Z,15.99
2023-06-17T02:09:08.139Z,15.87
2023-06-17T02:10:10.817Z,15.94
2023-06-17T02:11:13.119Z,15.93
2023-06-17T02:12:15.266Z,15.97
2023-06-17T02:13:17.487Z,15.92
2023-06-17T02:14:19.992Z,15.94
2023-06-17T02:15:22.319Z,15.95
2023-06-17T02:16:25.034Z,15.97
2023-06-17T02:17:28.904Z,15.90
2023-06-17T02:18:33.498Z,15.93
2023-06-17T02:19:48.961Z,16.15
2023-06-17T02:20:51.524Z,16.11
2023-06-17T02:21:53.859Z,16.07
2023-06-17T02:22:56.037Z,16.05
2023-06-17T02:23:58.282Z,16.06
2023-06-17T02:25:00.471Z,16.06
2023-06-17T02:26:02.803Z,16.02
2023-06-17T02:27:06.538Z,16.06
2023-06-17T02:28:09.014Z,16.00
2023-06-17T02:29:11.893Z,15.98
2023-06-17T02:30:14.525Z,16.03
2023-06-17T02:31:16.906Z,16.04
2023-06-17T02:32:19.185Z,16.04
2023-06-17T02:33:22.313Z,16.04
2023-06-17T02:34:24.607Z,16.05
2023-06-17T02:35:26.788Z,16.05
2023-06-17T02:36:29.124Z,16.10
2023-06-17T02:37:31.575Z,16.18
2023-06-17T02:38:33.996Z,16.06
2023-06-17T02:39:36.472Z,16.13
2023-06-17T02:40:38.669Z,16.11
2023-06-17T02:41:42.584Z,16.18
2023-06-17T02:42:44.861Z,16.15
2023-06-17T02:43:47.069Z,16.10
2023-06-17T02:44:49.373Z,16.09
2023-06-17T02:45:51.588Z,16.11
2023-06-17T02:46:53.857Z,16.08
2023-06-17T02:47:57.154Z,16.07
2023-06-17T02:48:59.514Z,16.10
2023-06-17T02:50:02.355Z,16.08
2023-06-17T02:51:06.418Z,16.06
2023-06-17T02:52:08.757Z,16.02
2023-06-17T02:53:11.703Z,16.04
2023-06-17T02:54:14.436Z,16.03
2023-06-17T02:55:16.775Z,15.97
2023-06-17T02:56:18.977Z,15.95
2023-06-17T02:57:21.313Z,15.90
2023-06-17T02:58:26.875Z,15.90
2023-06-17T02:59:34.629Z,15.90
2023-06-17T03:00:37.464Z,15.98
2023-06-17T03:01:43.326Z,15.97
2023-06-17T03:02:45.824Z,16.00
2023-06-17T03:03:48.092Z,15.94
2023-06-17T03:04:55.349Z,15.99
2023-06-17T03:06:02.733Z,16.03
2023-06-17T03:07:07.070Z,16.07
2023-06-17T03:08:09.584Z,15.96
2023-06-17T03:09:12.257Z,16.02
2023-06-17T03:10:16.605Z,15.96
2023-06-17T03:11:22.969Z,15.97
2023-06-17T03:12:25.663Z,16.00
2023-06-17T03:13:29.382Z,16.06
2023-06-17T03:14:31.679Z,16.04
2023-06-17T03:15:35.720Z,16.08
2023-06-17T03:16:39.605Z,16.05
2023-06-17T03:17:42.643Z,16.06
2023-06-17T03:18:44.925Z,16.05
2023-06-17T03:19:47.347Z,16.05
2023-06-17T03:20:51.180Z,16.09
2023-06-17T03:21:54.128Z,16.07
2023-06-17T03:22:58.771Z,16.11
2023-06-17T03:24:02.623Z,16.26
2023-06-17T03:25:08.569Z,16.15
2023-06-17T03:26:10.764Z,16.13
2023-06-17T03:27:13.401Z,16.09
2023-06-17T03:28:15.744Z,16.13
2023-06-17T03:29:18.141Z,16.20
2023-06-17T03:30:24.196Z,16.37
2023-06-17T03:31:26.519Z,16.30
2023-06-17T03:32:29.952Z,16.30
2023-06-17T03:33:32.219Z,16.28
2023-06-17T03:34:34.639Z,16.28
2023-06-17T03:35:42.981Z,16.30
2023-06-17T03:36:48.714Z,16.34
2023-06-17T03:37:51.536Z,16.43
2023-06-17T03:38:53.894Z,16.35
2023-06-17T03:39:56.475Z,16.37
2023-06-17T03:40:58.700Z,16.27
2023-06-17T03:42:01.582Z,16.27
2023-06-17T03:43:03.871Z,16.23
2023-06-17T03:44:06.214Z,16.22
2023-06-17T03:45:08.982Z,16.20
2023-06-17T03:46:11.441Z,16.19
2023-06-17T03:47:13.760Z,16.17
2023-06-17T03:48:16.692Z,16.13
2023-06-17T03:49:18.905Z,16.15
2023-06-17T03:50:21.386Z,16.14
2023-06-17T03:51:23.936Z,16.11
2023-06-17T03:52:26.704Z,16.13
2023-06-17T03:53:30.214Z,16.14
2023-06-17T03:54:33.901Z,16.17
2023-06-17T03:55:37.459Z,16.29
2023-06-17T03:56:40.627Z,16.38
2023-06-17T03:57:44.170Z,16.41
2023-06-17T03:58:46.840Z,16.25
2023-06-17T03:59:49.282Z,16.28
2023-06-17T04:00:52.743Z,16.32
2023-06-17T04:01:55.020Z,16.28
2023-06-17T04:02:57.696Z,16.41
2023-06-17T04:04:04.876Z,16.42
2023-06-17T04:05:07.290Z,16.45
2023-06-17T04:06:09.468Z,16.52
2023-06-17T04:07:12.030Z,16.57
2023-06-17T04:08:14.378Z,16.57
2023-06-17T04:09:16.593Z,16.46
2023-06-17T04:10:18.762Z,16.53
2023-06-17T04:11:20.936Z,16.47
2023-06-17T04:12:23.292Z,16.39
2023-06-17T04:13:25.667Z,16.35
2023-06-17T04:14:28.635Z,16.37
2023-06-17T04:15:30.842Z,16.40
2023-06-17T04:16:36.829Z,16.43
2023-06-17T04:17:39.220Z,16.35
2023-06-17T04:18:41.581Z,16.36
2023-06-17T04:19:43.760Z,16.35
2023-06-17T04:20:46.116Z,16.31
2023-06-17T04:21:48.314Z,16.26
2023-06-17T04:22:50.647Z,16.29
2023-06-17T04:23:52.900Z,16.32
2023-06-17T04:24:57.135Z,16.32
2023-06-17T04:26:01.728Z,16.34
2023-06-17T04:27:07.035Z,16.39
2023-06-17T04:28:09.948Z,16.46
2023-06-17T04:29:13.516Z,16.43
2023-06-17T04:30:16.355Z,16.47
2023-06-17T04:31:19.404Z,16.48
2023-06-17T04:32:22.606Z,16.52
2023-06-17T04:33:25.839Z,16.58
2023-06-17T04:34:28.221Z,16.59
2023-06-17T04:35:31.319Z,16.66
2023-06-17T04:36:35.585Z,16.66
2023-06-17T04:37:38.306Z,16.71
2023-06-17T04:38:41.023Z,16.73
2023-06-17T04:39:43.696Z,16.59
2023-06-17T04:40:45.952Z,16.70
2023-06-17T04:41:48.548Z,16.66
2023-06-17T04:42:51.499Z,16.64
2023-06-17T04:43:54.737Z,16.63
2023-06-17T04:44:57.500Z,16.70
2023-06-17T04:46:02.145Z,16.80
2023-06-17T04:47:09.265Z,16.90
2023-06-17T04:48:12.097Z,16.76
2023-06-17T04:49:15.158Z,16.72
2023-06-17T04:50:17.955Z,16.62
2023-06-17T04:51:21.526Z,16.51
2023-06-17T04:52:25.644Z,16.59
2023-06-17T04:53:28.900Z,16.61
2023-06-17T04:54:32.198Z,16.66
2023-06-17T04:55:37.384Z,16.61
2023-06-17T04:56:41.742Z,16.65
2023-06-17T04:57:44.162Z,16.65
2023-06-17T04:58:46.994Z,16.68
2023-06-17T04:59:51.221Z,16.66
2023-06-17T05:00:54.120Z,16.46
2023-06-17T05:02:00.045Z,16.44
2023-06-17T05:03:03.025Z,16.47
2023-06-17T05:04:06.626Z,16.49
2023-06-17T05:05:09.401Z,16.47
2023-06-17T05:06:11.985Z,16.52
2023-06-17T05:07:14.877Z,16.53
2023-06-17T05:08:18.848Z,16.54
2023-06-17T05:09:21.254Z,16.59
2023-06-17T05:10:23.793Z,16.64
2023-06-17T05:11:27.722Z,16.47
2023-06-17T05:12:30.096Z,16.62
2023-06-17T05:13:32.578Z,16.64
2023-06-17T05:14:35.729Z,16.65
2023-06-17T05:15:38.035Z,16.61
2023-06-17T05:16:40.461Z,16.59
2023-06-17T05:17:45.188Z,16.65
2023-06-17T05:18:47.830Z,16.66
2023-06-17T05:19:50.842Z,16.68
2023-06-17T05:20:53.957Z,16.59
2023-06-17T05:21:57.025Z,16.64
2023-06-17T05:23:02.533Z,16.61
2023-06-17T05:24:05.084Z,16.51
2023-06-17T05:25:07.770Z,16.47
2023-06-17T05:26:10.068Z,16.46
2023-06-17T05:27:12.531Z,16.43
2023-06-17T05:28:15.048Z,16.41
2023-06-17T05:29:17.405Z,16.51
2023-06-17T05:30:20.827Z,16.58
2023-06-17T05:31:25.544Z,16.58
2023-06-17T05:32:27.866Z,16.53
2023-06-17T05:33:32.902Z,16.65
2023-06-17T05:34:35.488Z,16.55
2023-06-17T05:35:37.685Z,16.61
2023-06-17T05:36:40.372Z,16.66
2023-06-17T05:37:42.753Z,16.62
2023-06-17T05:38:44.944Z,16.68
2023-06-17T05:39:47.346Z,16.79
2023-06-17T05:40:50.572Z,16.76
2023-06-17T05:41:52.769Z,16.81
2023-06-17T05:42:55.672Z,16.78
2023-06-17T05:43:58.169Z,16.88
2023-06-17T05:45:00.653Z,16.85
2023-06-17T05:46:04.699Z,16.93
2023-06-17T05:47:07.025Z,16.93
2023-06-17T05:48:09.303Z,16.87
2023-06-17T05:49:11.687Z,16.96
2023-06-17T05:50:14.442Z,17.09
2023-06-17T05:51:18.306Z,17.10
2023-06-17T05:52:21.554Z,17.20
2023-06-17T05:53:23.878Z,17.10
2023-06-17T05:54:27.318Z,17.10
2023-06-17T05:55:29.967Z,17.14
2023-06-17T05:56:32.234Z,16.97
2023-06-17T05:57:34.778Z,17.11
2023-06-17T05:58:37.402Z,17.12
2023-06-17T05:59:43.724Z,17.14
2023-06-17T06:00:47.443Z,17.15
2023-06-17T06:01:49.719Z,17.10
2023-06-17T06:02:52.492Z,17.01
2023-06-17T06:03:54.914Z,17.02
2023-06-17T06:04:57.153Z,17.02
2023-06-17T06:05:59.358Z,17.16
2023-06-17T06:07:01.565Z,17.14
2023-06-17T06:08:03.892Z,17.09
2023-06-17T06:09:06.124Z,17.09
2023-06-17T06:10:09.139Z,17.18
2023-06-17T06:11:15.935Z,17.21
2023-06-17T06:12:18.318Z,17.31
2023-06-17T06:13:20.543Z,17.44
2023-06-17T06:14:22.768Z,17.44
2023-06-17T06:15:26.982Z,17.44
2023-06-17T06:16:29.387Z,17.48
2023-06-17T06:17:31.898Z,17.62
2023-06-17T06:18:34.363Z,17.75
2023-06-17T06:19:36.611Z,17.73
2023-06-17T06:20:38.850Z,17.80
2023-06-17T06:21:42.421Z,17.79
2023-06-17T06:22:44.974Z,17.81
2023-06-17T06:23:47.863Z,17.97
2023-06-17T06:24:50.445Z,18.01
2023-06-17T06:25:52.810Z,17.99
2023-06-17T06:26:55.145Z,18.21
2023-06-17T06:27:59.615Z,18.25
2023-06-17T06:29:03.489Z,18.22
2023-06-17T06:30:06.447Z,18.28
2023-06-17T06:31:13.158Z,18.34
2023-06-17T06:32:15.376Z,18.35
2023-06-17T06:33:18.374Z,18.31
2023-06-17T06:34:20.698Z,18.15
2023-06-17T06:35:22.935Z,18.28
2023-06-17T06:36:26.476Z,18.45
2023-06-17T06:37:28.742Z,18.51
2023-06-17T06:38:31.065Z,18.56
2023-06-17T06:39:35.448Z,18.47
2023-06-17T06:40:37.723Z,18.55
2023-06-17T06:41:40.055Z,18.61
2023-06-17T06:43:01.710Z,18.73
2023-06-17T06:44:14.629Z,18.74
2023-06-17T06:45:17.019Z,18.72
2023-06-17T06:46:20.704Z,18.41
2023-06-17T06:47:24.053Z,18.61
2023-06-17T06:48:27.676Z,18.58
2023-06-17T06:49:29.870Z,18.59
2023-06-17T06:50:32.051Z,18.62
2023-06-17T06:51:34.396Z,18.65
2023-06-17T06:52:36.676Z,18.65
2023-06-17T06:53:39.234Z,18.77
2023-06-17T06:54:41.464Z,18.65
2023-06-17T06:55:44.161Z,18.69
2023-06-17T06:56:46.447Z,18.71
2023-06-17T06:57:48.883Z,18.72
2023-06-17T06:58:51.171Z,18.72
2023-06-17T06:59:53.351Z,18.58
2023-06-17T07:00:56.470Z,18.72
2023-06-17T07:01:58.990Z,18.34
2023-06-17T07:03:01.408Z,18.06
2023-06-17T07:04:03.814Z,18.26
2023-06-17T07:05:06.459Z,18.43
2023-06-17T07:06:14.911Z,18.49
2023-06-17T07:07:17.500Z,18.54
2023-06-17T07:08:20.826Z,18.63
2023-06-17T07:09:24.021Z,18.65
2023-06-17T07:10:26.279Z,18.55
2023-06-17T07:11:29.221Z,18.59
2023-06-17T07:12:31.759Z,18.55
2023-06-17T07:13:33.980Z,18.60
2023-06-17T07:14:36.661Z,18.70
2023-06-17T07:15:39.033Z,18.61
2023-06-17T07:16:41.622Z,18.32
2023-06-17T07:17:43.980Z,18.33
2023-06-17T07:18:46.327Z,18.37
2023-06-17T07:19:48.543Z,18.48
2023-06-17T07:20:50.901Z,18.51
2023-06-17T07:21:54.865Z,18.43
2023-06-17T07:22:57.441Z,18.51
2023-06-17T07:23:59.743Z,18.46
2023-06-17T07:25:03.779Z,18.42
2023-06-17T07:26:07.528Z,18.40
2023-06-17T07:27:09.933Z,18.47
2023-06-17T07:28:14.029Z,18.39
2023-06-17T07:29:16.603Z,18.48
2023-06-17T07:30:19.181Z,18.48
2023-06-17T07:31:23.917Z,18.71
2023-06-17T07:32:26.523Z,18.73
2023-06-17T07:33:28.870Z,18.82
2023-06-17T07:34:31.395Z,18.85
2023-06-17T07:35:34.106Z,18.92
2023-06-17T07:36:36.297Z,18.94
2023-06-17T07:37:38.569Z,18.94
2023-06-17T07:38:42.213Z,18.93
2023-06-17T07:39:47.459Z,19.05
2023-06-17T07:40:49.736Z,18.91
2023-06-17T07:41:52.002Z,18.91
2023-06-17T07:42:54.331Z,18.87
2023-06-17T07:43:56.605Z,19.13
2023-06-17T07:44:58.851Z,19.18
2023-06-17T07:46:01.111Z,19.24
2023-06-17T07:47:03.714Z,19.21
2023-06-17T07:48:06.171Z,19.36
2023-06-17T07:49:08.478Z,19.66
2023-06-17T07:50:11.340Z,19.91
2023-06-17T07:51:13.597Z,20.08
2023-06-17T07:52:16.063Z,20.25
2023-06-17T07:53:18.251Z,20.37
2023-06-17T07:54:20.427Z,20.52
2023-06-17T07:55:22.625Z,20.48
2023-06-17T07:56:26.364Z,20.73
2023-06-17T07:57:28.625Z,20.78
2023-06-17T07:58:30.782Z,20.48
2023-06-17T07:59:33.069Z,20.60
2023-06-17T08:00:35.327Z,20.60
2023-06-17T08:01:38.299Z,20.56
2023-06-17T08:02:44.377Z,20.68
2023-06-17T08:03:46.837Z,20.38
2023-06-17T08:04:49.753Z,20.59
2023-06-17T08:05:51.898Z,20.64
2023-06-17T08:06:54.118Z,20.67
2023-06-17T08:07:56.556Z,20.84
2023-06-17T08:08:58.730Z,20.83
2023-06-17T08:10:01.143Z,20.91
2023-06-17T08:11:03.362Z,21.14
2023-06-17T08:12:06.400Z,21.19
2023-06-17T08:13:09.042Z,21.07
2023-06-17T08:14:11.214Z,21.18
2023-06-17T08:15:13.390Z,21.17
2023-06-17T08:16:15.719Z,21.19
2023-06-17T08:17:17.987Z,21.31
2023-06-17T08:18:20.235Z,21.52
2023-06-17T08:19:22.683Z,21.67
2023-06-17T08:20:25.279Z,21.73
2023-06-17T08:21:27.725Z,21.73
2023-06-17T08:22:30.121Z,21.98
2023-06-17T08:23:32.343Z,21.89
2023-06-17T08:24:34.791Z,22.00
2023-06-17T08:25:37.059Z,21.84
2023-06-17T08:26:39.227Z,21.80
2023-06-17T08:27:45.380Z,21.80
2023-06-17T08:28:47.634Z,21.93
2023-06-17T08:29:49.823Z,21.96
2023-06-17T08:30:53.155Z,21.95
2023-06-17T08:31:55.554Z,21.85
2023-06-17T08:32:58.690Z,21.88
2023-06-17T08:34:00.915Z,21.94
2023-06-17T08:35:07.311Z,21.93
2023-06-17T08:36:09.528Z,22.13
2023-06-17T08:37:11.727Z,22.55
2023-06-17T08:38:13.895Z,22.96
2023-06-17T08:39:16.377Z,24.00
2023-06-17T08:40:20.596Z,24.88
2023-06-17T08:41:23.377Z,25.80
2023-06-17T08:42:28.154Z,27.11
2023-06-17T08:43:32.111Z,28.17
2023-06-17T08:44:34.826Z,29.11
2023-06-17T08:45:40.256Z,29.98
2023-06-17T08:46:47.615Z,29.07
2023-06-17T08:47:50.102Z,30.07
2023-06-17T08:48:53.659Z,30.90
2023-06-17T08:49:59.214Z,30.77
2023-06-17T08:51:01.524Z,30.59
2023-06-17T08:52:04.808Z,30.17
2023-06-17T08:53:07.106Z,29.36
2023-06-17T08:54:10.935Z,29.56
2023-06-17T08:55:14.154Z,29.11
2023-06-17T08:56:16.350Z,28.96
2023-06-17T08:57:19.025Z,28.85
2023-06-17T08:58:21.476Z,29.07
2023-06-17T08:59:23.833Z,29.01
2023-06-17T09:00:26.061Z,29.32
2023-06-17T09:01:28.786Z,29.29
2023-06-17T09:02:33.440Z,30.21
2023-06-17T09:03:39.162Z,31.34
2023-06-17T09:04:41.900Z,30.53
2023-06-17T09:05:44.241Z,31.30
2023-06-17T09:06:46.464Z,30.63
2023-06-17T09:07:48.660Z,30.62
2023-06-17T09:08:52.597Z,31.56
2023-06-17T09:09:57.889Z,32.02
2023-06-17T09:11:06.465Z,33.54
2023-06-17T09:12:09.700Z,33.24
2023-06-17T09:13:12.188Z,32.91
2023-06-17T09:14:23.096Z,32.94
2023-06-17T09:15:46.773Z,31.98
2023-06-17T09:16:50.781Z,32.34
2023-06-17T09:17:54.601Z,32.31
2023-06-17T09:19:01.808Z,32.00
2023-06-17T09:20:15.427Z,31.71
2023-06-17T09:21:18.208Z,32.19
2023-06-17T09:22:21.489Z,32.98
2023-06-17T09:23:26.877Z,32.64
2023-06-17T09:24:31.065Z,31.98
2023-06-17T09:25:36.288Z,32.58
2023-06-17T09:26:43.167Z,32.61
2023-06-17T09:29:02.853Z,33.89
2023-06-17T09:30:10.526Z,34.30
2023-06-17T09:31:13.231Z,34.85
2023-06-17T09:32:15.489Z,35.61
2023-06-17T09:33:22.304Z,35.74
2023-06-17T09:34:26.454Z,35.93
2023-06-17T09:35:28.642Z,36.33
2023-06-17T09:36:31.315Z,35.58
2023-06-17T09:37:33.558Z,36.74
2023-06-17T09:38:39.591Z,36.93
2023-06-17T09:39:46.373Z,36.86
2023-06-17T09:40:49.730Z,37.42
2023-06-17T09:41:55.875Z,37.84
2023-06-17T09:43:09.421Z,37.46
2023-06-17T09:44:23.535Z,36.74
2023-06-17T09:45:26.292Z,37.49
2023-06-17T09:46:36.341Z,36.78
2023-06-17T09:47:39.131Z,37.11
2023-06-17T09:48:41.510Z,37.61
2023-06-17T09:49:44.930Z,36.83
2023-06-17T09:50:48.255Z,37.88
2023-06-17T09:51:52.852Z,38.44
2023-06-17T09:52:56.883Z,38.64
2023-06-17T09:54:00.367Z,37.43
2023-06-17T09:55:06.802Z,36.46
2023-06-17T09:56:13.612Z,35.51
2023-06-17T09:57:17.983Z,35.06
2023-06-17T09:58:21.961Z,35.02
2023-06-17T09:59:25.726Z,35.17
2023-06-17T10:00:28.602Z,35.30
2023-06-17T10:01:32.000Z,35.69
2023-06-17T10:02:34.411Z,35.28
2023-06-17T10:03:38.693Z,34.85
2023-06-17T10:04:41.205Z,35.34
2023-06-17T10:05:43.579Z,35.78
2023-06-17T10:06:50.023Z,34.97
2023-06-17T10:07:54.064Z,34.69
2023-06-17T10:08:58.891Z,35.26
2023-06-17T10:10:03.273Z,35.91
2023-06-17T10:11:05.793Z,36.23
2023-06-17T10:12:09.991Z,36.95
2023-06-17T10:13:13.763Z,36.58
2023-06-17T10:14:29.835Z,37.25
2023-06-17T10:15:33.386Z,37.38
2023-06-17T10:16:40.264Z,37.70
2023-06-17T10:17:46.310Z,37.10
2023-06-17T10:18:51.413Z,36.35
2023-06-17T10:19:55.550Z,36.61
2023-06-17T10:21:01.037Z,36.45
2023-06-17T10:22:09.132Z,36.84
2023-06-17T10:23:12.581Z,36.93
2023-06-17T10:24:16.828Z,36.45
2023-06-17T10:25:19.259Z,36.14
2023-06-17T10:26:22.396Z,36.75
2023-06-17T10:27:24.743Z,37.01
2023-06-17T10:28:43.816Z,37.43
2023-06-17T10:29:49.572Z,37.31
2023-06-17T10:30:53.246Z,37.88
2023-06-17T10:31:55.588Z,37.59
2023-06-17T10:33:00.281Z,38.04
2023-06-17T10:34:03.292Z,38.02
2023-06-17T10:35:13.566Z,37.99
2023-06-17T10:36:15.926Z,36.88
2023-06-17T10:37:27.657Z,36.88
2023-06-17T10:38:30.660Z,36.95
2023-06-17T10:39:32.962Z,37.27
2023-06-17T10:40:58.231Z,37.79
2023-06-17T10:42:01.142Z,37.52
2023-06-17T10:43:03.635Z,37.83
2023-06-17T10:44:31.519Z,38.49
2023-06-17T10:45:48.522Z,38.61
2023-06-17T10:46:54.486Z,39.26
2023-06-17T10:48:18.618Z,38.81
2023-06-17T10:49:21.197Z,39.36
2023-06-17T10:50:23.726Z,40.31
2023-06-17T10:51:36.260Z,40.36
2023-06-17T10:52:43.976Z,40.13
2023-06-17T10:53:52.814Z,39.77
2023-06-17T10:54:56.623Z,39.48
2023-06-17T10:56:01.112Z,39.55
2023-06-17T10:57:05.578Z,38.56
2023-06-17T10:58:08.437Z,38.28
2023-06-17T10:59:10.617Z,39.01
2023-06-17T11:00:13.330Z,38.16
2023-06-17T11:01:15.816Z,38.44
2023-06-17T11:02:18.010Z,38.90
2023-06-17T11:03:20.535Z,38.00
2023-06-17T11:04:23.056Z,37.89
2023-06-17T11:05:25.437Z,37.81
2023-06-17T11:06:33.085Z,37.42
2023-06-17T11:07:35.479Z,36.90
2023-06-17T11:08:38.571Z,36.74
2023-06-17T11:09:40.841Z,35.81
2023-06-17T11:10:43.101Z,36.02
2023-06-17T11:11:45.305Z,36.46
2023-06-17T11:12:49.020Z,36.23
2023-06-17T11:13:53.083Z,36.63
2023-06-17T11:14:55.962Z,36.57
2023-06-17T11:15:58.449Z,36.10
2023-06-17T11:17:01.080Z,36.64
2023-06-17T11:18:03.996Z,37.14
2023-06-17T11:19:07.182Z,36.88
2023-06-17T11:20:12.173Z,37.28
2023-06-17T11:21:16.269Z,38.35
2023-06-17T11:22:18.454Z,38.79
2023-06-17T11:23:21.458Z,37.85
2023-06-17T11:24:25.096Z,38.39
2023-06-17T11:25:43.672Z,39.10
2023-06-17T11:26:46.765Z,39.58
2023-06-17T11:27:49.156Z,38.75
2023-06-17T11:28:51.702Z,39.10
2023-06-17T11:29:53.996Z,38.22
2023-06-17T11:30:57.354Z,38.15
2023-06-17T11:32:01.136Z,38.72
2023-06-17T11:33:03.570Z,38.38
2023-06-17T11:34:07.898Z,38.50
2023-06-17T11:35:10.470Z,38.46
2023-06-17T11:36:15.216Z,37.78
2023-06-17T11:37:17.925Z,38.55
2023-06-17T11:38:21.935Z,39.02
2023-06-17T11:39:25.759Z,39.12
2023-06-17T11:40:28.406Z,39.33
2023-06-17T11:41:31.276Z,39.58
2023-06-17T11:42:33.910Z,39.51
2023-06-17T11:43:36.833Z,39.56
2023-06-17T11:44:39.267Z,39.64
2023-06-17T11:45:42.037Z,40.05
2023-06-17T11:46:44.571Z,40.07
2023-06-17T11:47:46.938Z,40.11
2023-06-17T11:48:49.429Z,39.44
2023-06-17T11:49:51.874Z,39.28
2023-06-17T11:50:55.793Z,39.34
2023-06-17T11:52:03.041Z,38.91
2023-06-17T11:53:05.238Z,38.75
2023-06-17T11:54:08.054Z,39.39
2023-06-17T11:55:15.432Z,39.59
2023-06-17T11:56:21.353Z,39.14
2023-06-17T11:57:25.070Z,39.44
2023-06-17T11:58:27.335Z,38.65
2023-06-17T11:59:33.036Z,39.60
2023-06-17T12:00:38.398Z,39.07
2023-06-17T12:01:41.575Z,39.93
2023-06-17T12:02:44.066Z,39.94
2023-06-17T12:03:49.223Z,40.24
2023-06-17T12:04:51.418Z,40.09
2023-06-17T12:05:53.624Z,39.60
2023-06-17T12:06:56.202Z,39.63
2023-06-17T12:08:02.036Z,39.25
2023-06-17T12:09:05.187Z,39.25
2023-06-17T12:10:08.879Z,38.96
2023-06-17T12:11:26.788Z,39.03
2023-06-17T12:12:33.493Z,38.36
2023-06-17T12:13:40.456Z,37.88
2023-06-17T12:14:42.746Z,36.94
2023-06-17T12:15:45.936Z,37.48
2023-06-17T12:16:48.742Z,37.10
2023-06-17T12:17:50.949Z,36.43
2023-06-17T12:18:53.611Z,37.55
2023-06-17T12:20:01.952Z,37.65
2023-06-17T12:21:11.395Z,37.99
2023-06-17T12:22:13.960Z,38.39
2023-06-17T12:23:16.261Z,38.70
2023-06-17T12:24:20.508Z,39.04
2023-06-17T12:25:24.133Z,39.05
2023-06-17T12:26:27.951Z,39.37
2023-06-17T12:27:31.143Z,39.25
2023-06-17T12:28:33.744Z,39.04
2023-06-17T12:29:35.942Z,37.92
2023-06-17T12:30:40.321Z,37.97
2023-06-17T12:31:44.010Z,37.16
2023-06-17T12:32:46.794Z,36.61
2023-06-17T12:33:49.587Z,36.72
2023-06-17T12:34:52.388Z,37.40
2023-06-17T12:35:54.635Z,36.74
2023-06-17T12:36:56.809Z,37.00
2023-06-17T12:37:59.019Z,37.22
2023-06-17T12:39:02.636Z,37.30
2023-06-17T12:40:05.349Z,37.15
2023-06-17T12:41:08.287Z,37.28
2023-06-17T12:42:10.468Z,37.62
2023-06-17T12:43:12.757Z,37.61
2023-06-17T12:44:15.060Z,37.88
2023-06-17T12:45:17.337Z,38.29
2023-06-17T12:46:19.778Z,38.44
2023-06-17T12:47:23.140Z,38.42
2023-06-17T12:48:29.855Z,36.81
2023-06-17T12:49:32.730Z,36.31
2023-06-17T12:50:34.971Z,36.40
2023-06-17T12:51:37.318Z,36.46
2023-06-17T12:52:39.493Z,36.11
2023-06-17T12:53:41.675Z,36.53
2023-06-17T12:54:44.678Z,37.08
2023-06-17T12:55:46.858Z,36.97
2023-06-17T12:56:49.014Z,36.09
2023-06-17T12:57:51.191Z,36.04
2023-06-17T12:58:53.369Z,35.87
2023-06-17T12:59:55.777Z,35.66
2023-06-17T13:00:58.018Z,35.78
2023-06-17T13:02:00.766Z,35.69
2023-06-17T13:03:03.654Z,36.19
2023-06-17T13:04:06.017Z,36.41
2023-06-17T13:05:08.659Z,36.11
2023-06-17T13:06:11.009Z,36.26
2023-06-17T13:07:13.263Z,36.27
2023-06-17T13:08:15.936Z,35.86
2023-06-17T13:09:18.102Z,36.36
2023-06-17T13:10:20.677Z,35.84
2023-06-17T13:11:23.180Z,35.34
2023-06-17T13:12:25.832Z,34.50
2023-06-17T13:13:28.817Z,34.62
2023-06-17T13:14:31.133Z,34.43
2023-06-17T13:15:33.496Z,34.10
2023-06-17T13:16:36.290Z,33.68
2023-06-17T13:17:38.633Z,33.92
2023-06-17T13:18:41.637Z,33.78
2023-06-17T13:19:43.880Z,33.72
2023-06-17T13:20:46.069Z,34.07
2023-06-17T13:21:48.252Z,34.22
2023-06-17T13:22:50.890Z,34.44
2023-06-17T13:23:53.217Z,34.21
2023-06-17T13:24:55.474Z,34.44
2023-06-17T13:25:58.191Z,34.73
2023-06-17T13:27:00.657Z,34.92
2023-06-17T13:28:02.989Z,34.69
2023-06-17T13:29:06.427Z,34.45
2023-06-17T13:30:09.130Z,34.55
2023-06-17T13:31:11.570Z,34.33
2023-06-17T13:32:13.828Z,34.35
2023-06-17T13:33:16.075Z,34.55
2023-06-17T13:34:19.254Z,34.59
2023-06-17T13:35:22.481Z,34.61
2023-06-17T13:36:26.273Z,35.01
2023-06-17T13:37:29.857Z,34.98
2023-06-17T13:38:32.161Z,34.87
2023-06-17T13:39:35.039Z,34.71
2023-06-17T13:40:37.471Z,34.55
2023-06-17T13:41:39.762Z,34.58